createdAt,value
2023-02-22T00:01:51.247Z,97817.66
2023-02-22T00:04:21.198Z,97809.94
2023-02-22T00:06:49.403Z,97806.34
2023-02-22T00:09:20.586Z,97821.66
2023-02-22T00:11:48.807Z,97827.41
2023-02-22T00:14:15.894Z,97806.53
2023-02-22T00:16:42.486Z,97799.56
2023-02-22T00:19:10.586Z,97807.50
2023-02-22T00:21:37.428Z,97809.44
2023-02-22T00:24:23.104Z,97800.75
2023-02-22T00:26:55.667Z,97797.44
2023-02-22T00:29:23.426Z,97805.13
2023-02-22T00:31:50.234Z,97804.16
2023-02-22T00:34:16.805Z,97801.31
2023-02-22T00:36:48.305Z,97801.97
2023-02-22T00:39:14.945Z,97810.84
2023-02-22T00:41:41.514Z,97819.00
2023-02-22T00:44:08.082Z,97815.53
2023-02-22T00:46:37.762Z,97807.41
2023-02-22T00:49:07.144Z,97802.72
2023-02-22T00:51:35.633Z,97818.63
2023-02-22T00:54:02.209Z,97820.38
2023-02-22T00:56:28.754Z,97814.44
2023-02-22T00:58:55.329Z,97814.75
2023-02-22T01:01:22.345Z,97808.38
2023-02-22T01:03:48.943Z,97822.78
2023-02-22T01:06:15.666Z,97832.16
2023-02-22T01:08:45.242Z,97835.63
2023-02-22T01:11:12.692Z,97825.31
2023-02-22T01:13:39.287Z,97835.69
2023-02-22T01:16:08.706Z,97834.72
2023-02-22T01:18:38.116Z,97838.03
2023-02-22T01:21:06.066Z,97839.00
2023-02-22T01:23:32.553Z,97836.81
2023-02-22T01:25:59.087Z,97839.00
2023-02-22T01:28:25.647Z,97839.47
2023-02-22T01:30:52.307Z,97837.25
2023-02-22T01:33:18.913Z,97839.13
2023-02-22T01:35:46.367Z,97850.28
2023-02-22T01:38:14.199Z,97849.28
2023-02-22T01:40:43.562Z,97851.53
2023-02-22T01:43:30.734Z,97842.16
2023-02-22T01:45:57.403Z,97857.50
2023-02-22T01:48:47.785Z,97849.16
2023-02-22T01:51:20.371Z,97855.53
2023-02-22T01:53:55.409Z,97834.34
2023-02-22T01:56:24.918Z,97842.50
2023-02-22T01:58:59.370Z,97845.91
2023-02-22T02:01:29.565Z,97835.16
2023-02-22T02:04:01.167Z,97838.53
2023-02-22T02:06:33.783Z,97835.19
2023-02-22T02:09:30.234Z,97827.50
2023-02-22T02:12:05.067Z,97813.88
2023-02-22T02:14:32.350Z,97818.03
2023-02-22T02:17:03.594Z,97821.34
2023-02-22T02:20:00.684Z,97814.91
2023-02-22T02:22:45.955Z,97811.94
2023-02-22T02:25:30.970Z,97819.28
2023-02-22T02:28:25.988Z,97820.50
2023-02-22T02:31:31.466Z,97817.78
2023-02-22T02:34:24.252Z,97814.38
2023-02-22T02:37:35.556Z,97809.66
2023-02-22T02:40:24.067Z,97822.22
2023-02-22T02:42:59.144Z,97813.91
2023-02-22T02:45:32.946Z,97795.47
2023-02-22T02:48:03.632Z,97799.00
2023-02-22T02:50:37.752Z,97804.16
2023-02-22T02:53:11.056Z,97799.91
2023-02-22T02:55:38.286Z,97797.81
2023-02-22T02:58:07.635Z,97799.88
2023-02-22T03:00:41.679Z,97802.50
2023-02-22T03:03:25.371Z,97799.53
2023-02-22T03:06:12.300Z,97801.41
2023-02-22T03:08:52.790Z,97802.22
2023-02-22T03:11:24.147Z,97783.88
2023-02-22T03:14:14.586Z,97790.34
2023-02-22T03:16:55.809Z,97794.84
2023-02-22T03:19:50.532Z,97793.28
2023-02-22T03:22:26.385Z,97801.03
2023-02-22T03:25:14.465Z,97788.81
2023-02-22T03:27:46.482Z,97795.25
2023-02-22T03:30:39.579Z,97792.59
2023-02-22T03:33:15.641Z,97777.09
2023-02-22T03:35:50.937Z,97794.78
2023-02-22T03:38:21.005Z,97784.34
2023-02-22T03:40:52.239Z,97783.88
2023-02-22T03:43:25.000Z,97774.47
2023-02-22T03:45:51.946Z,97784.22
2023-02-22T03:48:38.544Z,97782.72
2023-02-22T03:51:06.280Z,97777.13
2023-02-22T03:53:37.087Z,97780.28
2023-02-22T03:56:08.572Z,97785.28
2023-02-22T03:58:37.752Z,97775.00
2023-02-22T04:01:04.464Z,97786.59
2023-02-22T04:03:30.979Z,97779.16
2023-02-22T04:05:58.007Z,97768.75
2023-02-22T04:08:24.502Z,97772.41
2023-02-22T04:10:51.390Z,97766.28
2023-02-22T04:13:17.909Z,97780.38
2023-02-22T04:15:47.571Z,97781.38
2023-02-22T04:18:18.458Z,97758.44
2023-02-22T04:20:48.511Z,97765.03
2023-02-22T04:23:17.050Z,97766.84
2023-02-22T04:25:47.572Z,97771.00
2023-02-22T04:28:18.159Z,97773.81
2023-02-22T04:30:48.687Z,97775.97
2023-02-22T04:33:19.427Z,97773.63
2023-02-22T04:35:49.534Z,97781.56
2023-02-22T04:38:17.821Z,97789.19
2023-02-22T04:40:47.470Z,97788.16
2023-02-22T04:43:13.988Z,97789.69
2023-02-22T04:45:40.528Z,97792.31
2023-02-22T04:48:07.057Z,97792.31
2023-02-22T04:50:33.560Z,97791.16
2023-02-22T04:53:00.030Z,97795.13
2023-02-22T04:55:28.126Z,97801.06
2023-02-22T04:57:55.964Z,97796.09
2023-02-22T05:00:22.681Z,97795.47
2023-02-22T05:02:50.323Z,97800.59
2023-02-22T05:05:21.447Z,97806.34
2023-02-22T05:07:51.012Z,97801.88
2023-02-22T05:10:21.003Z,97810.34
2023-02-22T05:12:51.838Z,97813.63
2023-02-22T05:15:22.134Z,97809.00
2023-02-22T05:17:49.719Z,97808.97
2023-02-22T05:20:29.895Z,97818.56
2023-02-22T05:22:58.304Z,97812.47
2023-02-22T05:25:25.691Z,97815.72
2023-02-22T05:27:54.285Z,97809.63
2023-02-22T05:30:25.366Z,97817.56
2023-02-22T05:32:52.512Z,97813.25
2023-02-22T05:35:23.258Z,97815.59
2023-02-22T05:37:50.855Z,97810.44
2023-02-22T05:40:19.454Z,97821.53
2023-02-22T05:42:49.102Z,97813.63
2023-02-22T05:45:20.982Z,97820.72
2023-02-22T05:47:49.565Z,97816.63
2023-02-22T05:50:19.840Z,97824.38
2023-02-22T05:52:49.535Z,97824.38
2023-02-22T05:55:21.733Z,97819.03
2023-02-22T05:57:52.672Z,97814.56
2023-02-22T06:00:27.888Z,97823.59
2023-02-22T06:03:03.096Z,97825.19
2023-02-22T06:05:29.973Z,97824.13
2023-02-22T06:07:57.773Z,97816.13
2023-02-22T06:10:25.129Z,97826.22
2023-02-22T06:12:52.201Z,97823.97
2023-02-22T06:15:23.251Z,97829.53
2023-02-22T06:17:49.861Z,97816.72
2023-02-22T06:20:19.993Z,97820.59
2023-02-22T06:22:54.704Z,97822.25
2023-02-22T06:25:26.579Z,97816.25
2023-02-22T06:27:53.367Z,97832.19
2023-02-22T06:30:24.962Z,97801.38
2023-02-22T06:32:51.667Z,97826.47
2023-02-22T06:35:21.975Z,97826.25
2023-02-22T06:37:51.163Z,97822.50
2023-02-22T06:40:21.399Z,97807.25
2023-02-22T06:42:50.941Z,97828.44
2023-02-22T06:45:21.544Z,97817.53
2023-02-22T06:47:51.224Z,97831.63
2023-02-22T06:50:26.621Z,97822.25
2023-02-22T06:52:53.162Z,97829.69
2023-02-22T06:55:21.780Z,97825.13
2023-02-22T06:57:51.753Z,97812.41
2023-02-22T07:00:25.084Z,97828.34
2023-02-22T07:02:52.367Z,97825.41
2023-02-22T07:05:23.994Z,97830.38
2023-02-22T07:07:52.798Z,97833.13
2023-02-22T07:10:28.612Z,97844.75
2023-02-22T07:12:55.826Z,97837.56
2023-02-22T07:15:24.558Z,97840.06
2023-02-22T07:17:52.492Z,97834.59
2023-02-22T07:20:24.761Z,97847.34
2023-02-22T07:22:52.375Z,97852.19
2023-02-22T07:25:23.446Z,97855.41
2023-02-22T07:27:53.670Z,97850.63
2023-02-22T07:30:28.217Z,97851.81
2023-02-22T07:32:55.793Z,97847.66
2023-02-22T07:35:28.658Z,97853.31
2023-02-22T07:37:56.338Z,97857.44
2023-02-22T07:40:23.743Z,97864.38
2023-02-22T07:43:04.320Z,97861.94
2023-02-22T07:45:33.910Z,97857.38
2023-02-22T07:48:01.935Z,97855.59
2023-02-22T07:50:32.828Z,97835.47
2023-02-22T07:53:02.349Z,97834.03
2023-02-22T07:55:31.008Z,97846.00
2023-02-22T07:58:04.619Z,97843.88
2023-02-22T08:00:34.429Z,97835.59
2023-02-22T08:03:02.929Z,97839.91
2023-02-22T08:05:31.363Z,97852.50
2023-02-22T08:07:58.211Z,97848.34
2023-02-22T08:10:26.436Z,97844.19
2023-02-22T08:12:54.343Z,97840.56
2023-02-22T08:15:24.247Z,97848.19
2023-02-22T08:17:53.684Z,97850.97
2023-02-22T08:20:23.301Z,97852.94
2023-02-22T08:22:51.579Z,97847.31
2023-02-22T08:25:20.852Z,97848.63
2023-02-22T08:27:50.763Z,97844.31
2023-02-22T08:30:22.429Z,97853.91
2023-02-22T08:32:51.287Z,97853.72
2023-02-22T08:35:20.594Z,97851.22
2023-02-22T08:37:53.074Z,97862.81
2023-02-22T08:40:24.489Z,97855.34
2023-02-22T08:42:51.549Z,97859.81
2023-02-22T08:45:21.118Z,97864.75
2023-02-22T08:47:49.591Z,97861.25
2023-02-22T08:50:24.096Z,97861.88
2023-02-22T08:52:58.651Z,97861.03
2023-02-22T08:55:27.747Z,97856.09
2023-02-22T08:57:54.300Z,97854.44
2023-02-22T09:00:24.776Z,97858.53
2023-02-22T09:02:52.432Z,97845.22
2023-02-22T09:05:21.012Z,97853.75
2023-02-22T09:07:50.059Z,97846.00
2023-02-22T09:10:20.420Z,97849.44
2023-02-22T09:12:47.031Z,97859.19
2023-02-22T09:15:13.581Z,97854.47
2023-02-22T09:17:40.074Z,97857.00
2023-02-22T09:20:08.151Z,97857.22
2023-02-22T09:22:34.714Z,97859.03
2023-02-22T09:25:11.353Z,97848.19
2023-02-22T09:27:43.665Z,97861.13
2023-02-22T09:30:36.794Z,97857.66
2023-02-22T09:33:12.402Z,97858.47
2023-02-22T09:35:42.564Z,97847.19
2023-02-22T09:38:11.127Z,97856.28
2023-02-22T09:40:45.092Z,97847.28
2023-02-22T09:43:14.803Z,97852.41
2023-02-22T09:45:56.586Z,97851.16
2023-02-22T09:48:25.372Z,97837.88
2023-02-22T09:50:58.482Z,97852.72
2023-02-22T09:53:45.059Z,97836.41
2023-02-22T09:56:14.640Z,97852.72
2023-02-22T09:58:45.811Z,97849.97
2023-02-22T10:01:28.096Z,97844.75
2023-02-22T10:04:24.988Z,97853.91
2023-02-22T10:07:09.968Z,97852.25
2023-02-22T10:09:42.735Z,97852.81
2023-02-22T10:12:12.722Z,97849.31
2023-02-22T10:15:02.752Z,97854.53
2023-02-22T10:17:54.061Z,97855.66
2023-02-22T10:20:50.692Z,97858.31
2023-02-22T10:23:28.582Z,97855.19
2023-02-22T10:26:26.883Z,97853.34
2023-02-22T10:29:11.949Z,97850.97
2023-02-22T10:31:45.780Z,97849.41
2023-02-22T10:34:25.705Z,97851.44
2023-02-22T10:37:03.162Z,97849.75
2023-02-22T10:39:36.533Z,97845.00
2023-02-22T10:42:08.105Z,97845.53
2023-02-22T10:44:39.754Z,97843.53
2023-02-22T10:47:10.081Z,97831.72
2023-02-22T10:49:41.986Z,97840.53
2023-02-22T10:52:24.560Z,97845.03
2023-02-22T10:54:52.077Z,97838.44
2023-02-22T10:57:25.645Z,97842.63
2023-02-22T10:59:52.505Z,97841.72
2023-02-22T11:02:27.828Z,97847.22
2023-02-22T11:04:57.776Z,97835.13
2023-02-22T11:07:24.644Z,97839.53
2023-02-22T11:09:57.820Z,97839.97
2023-02-22T11:12:39.912Z,97836.84
2023-02-22T11:15:21.083Z,97834.28
2023-02-22T11:18:01.467Z,97838.22
2023-02-22T11:20:35.081Z,97833.56
2023-02-22T11:23:05.112Z,97837.22
2023-02-22T11:25:42.293Z,97825.06
2023-02-22T11:28:31.075Z,97822.75
2023-02-22T11:31:22.332Z,97830.38
2023-02-22T11:33:59.517Z,97829.38
2023-02-22T11:36:30.799Z,97822.75
2023-02-22T11:39:00.769Z,97824.50
2023-02-22T11:41:29.900Z,97812.44
2023-02-22T11:44:21.526Z,97808.25
2023-02-22T11:46:50.678Z,97816.44
2023-02-22T11:49:21.710Z,97813.50
2023-02-22T11:52:20.626Z,97809.63
2023-02-22T11:55:01.845Z,97803.13
2023-02-22T11:57:46.552Z,97800.34
2023-02-22T12:00:29.035Z,97791.38
2023-02-22T12:03:20.850Z,97792.81
2023-02-22T12:06:02.379Z,97786.03
2023-02-22T12:08:54.132Z,97775.66
2023-02-22T12:11:33.120Z,97780.25
2023-02-22T12:14:14.824Z,97778.78
2023-02-22T12:16:59.633Z,97778.97
2023-02-22T12:19:38.095Z,97755.72
2023-02-22T12:22:13.154Z,97775.22
2023-02-22T12:24:57.945Z,97774.03
2023-02-22T12:27:50.253Z,97776.78
2023-02-22T12:30:38.658Z,97768.25
2023-02-22T12:33:13.793Z,97770.38
2023-02-22T12:35:50.820Z,97768.25
2023-02-22T12:38:27.700Z,97765.03
2023-02-22T12:40:54.480Z,97765.28
2023-02-22T12:43:29.273Z,97752.00
2023-02-22T12:46:14.295Z,97759.25
2023-02-22T12:48:51.682Z,97755.09
2023-02-22T12:51:22.204Z,97754.75
2023-02-22T12:54:25.788Z,97751.22
2023-02-22T12:57:10.087Z,97741.78
2023-02-22T12:59:39.003Z,97742.16
2023-02-22T13:02:21.736Z,97736.03
2023-02-22T13:04:50.730Z,97728.44
2023-02-22T13:07:23.047Z,97731.16
2023-02-22T13:09:58.900Z,97731.97
2023-02-22T13:12:57.588Z,97733.88
2023-02-22T13:15:46.250Z,97736.31
2023-02-22T13:18:27.907Z,97736.88
2023-02-22T13:21:17.888Z,97732.00
2023-02-22T13:23:55.978Z,97718.88
2023-02-22T13:26:31.489Z,97726.31
2023-02-22T13:29:13.854Z,97727.25
2023-02-22T13:32:10.753Z,97717.69
2023-02-22T13:34:37.179Z,97724.44
2023-02-22T13:37:12.795Z,97730.28
2023-02-22T13:40:03.248Z,97721.31
2023-02-22T13:42:29.691Z,97720.03
2023-02-22T13:45:27.328Z,97712.06
2023-02-22T13:48:04.057Z,97707.22
2023-02-22T13:51:00.750Z,97703.09
2023-02-22T13:53:34.987Z,97708.94
2023-02-22T13:56:02.232Z,97698.56
2023-02-22T13:58:28.913Z,97694.81
2023-02-22T14:00:58.058Z,97693.19
2023-02-22T14:03:41.128Z,97688.66
2023-02-22T14:06:11.465Z,97689.19
2023-02-22T14:08:41.300Z,97689.06
2023-02-22T14:11:14.418Z,97684.53
2023-02-22T14:13:57.987Z,97683.31
2023-02-22T14:16:27.308Z,97683.63
2023-02-22T14:19:13.489Z,97686.69
2023-02-22T14:21:57.552Z,97684.72
2023-02-22T14:24:27.486Z,97680.34
2023-02-22T14:27:04.843Z,97676.84
2023-02-22T14:29:31.700Z,97674.94
2023-02-22T14:32:03.044Z,97670.63
2023-02-22T14:35:25.436Z,97674.81
2023-02-22T14:37:57.084Z,97675.16
2023-02-22T14:40:30.353Z,97673.91
2023-02-22T14:43:19.909Z,97674.06
2023-02-22T14:46:01.347Z,97673.94
2023-02-22T14:48:42.776Z,97664.31
2023-02-22T14:51:21.865Z,97675.16
2023-02-22T14:54:06.430Z,97673.50
2023-02-22T14:56:41.435Z,97669.63
2023-02-22T14:59:21.221Z,97668.19
2023-02-22T15:02:01.679Z,97670.06
2023-02-22T15:04:34.933Z,97664.31
2023-02-22T15:07:09.569Z,97660.28
2023-02-22T15:09:37.607Z,97664.81
2023-02-22T15:12:04.318Z,97669.91
2023-02-22T15:14:39.179Z,97663.81
2023-02-22T15:17:17.220Z,97668.69
2023-02-22T15:19:43.979Z,97679.13
2023-02-22T15:22:19.566Z,97671.41
2023-02-22T15:24:56.705Z,97654.13
2023-02-22T15:27:25.984Z,97653.34
2023-02-22T15:29:59.702Z,97658.88
2023-02-22T15:32:30.645Z,97662.81
2023-02-22T15:35:28.421Z,97657.94
2023-02-22T15:38:20.124Z,97659.66
2023-02-22T15:40:50.624Z,97657.00
2023-02-22T15:43:32.748Z,97649.47
2023-02-22T15:46:00.899Z,97643.56
2023-02-22T15:48:31.160Z,97650.84
2023-02-22T15:51:04.340Z,97651.84
2023-02-22T15:53:42.684Z,97651.28
2023-02-22T15:56:16.354Z,97653.56
2023-02-22T15:58:45.691Z,97659.31
2023-02-22T16:01:17.293Z,97658.31
2023-02-22T16:03:51.507Z,97653.31
2023-02-22T16:06:36.039Z,97649.97
2023-02-22T16:09:32.474Z,97646.22
2023-02-22T16:12:24.189Z,97652.31
2023-02-22T16:14:52.402Z,97646.31
2023-02-22T16:17:27.927Z,97654.63
2023-02-22T16:19:54.751Z,97654.78
2023-02-22T16:22:36.697Z,97639.84
2023-02-22T16:25:21.516Z,97638.78
2023-02-22T16:27:59.378Z,97642.75
2023-02-22T16:30:29.506Z,97638.28
2023-02-22T16:32:58.425Z,97640.94
2023-02-22T16:35:28.789Z,97636.78
2023-02-22T16:38:02.222Z,97620.16
2023-02-22T16:40:39.005Z,97636.94
2023-02-22T16:43:14.222Z,97633.84
2023-02-22T16:45:42.500Z,97628.25
2023-02-22T16:48:18.653Z,97613.00
2023-02-22T16:50:46.623Z,97619.56
2023-02-22T16:53:13.646Z,97623.63
2023-02-22T16:55:44.751Z,97636.66
2023-02-22T16:58:13.777Z,97635.28
2023-02-22T17:00:42.304Z,97637.22
2023-02-22T17:03:15.018Z,97640.91
2023-02-22T17:05:41.894Z,97634.69
2023-02-22T17:08:08.506Z,97609.78
2023-02-22T17:10:35.086Z,97622.84
2023-02-22T17:13:16.134Z,97637.88
2023-02-22T17:15:46.847Z,97624.69
2023-02-22T17:18:16.319Z,97641.72
2023-02-22T17:20:45.020Z,97641.91
2023-02-22T17:23:12.390Z,97641.66
2023-02-22T17:25:50.643Z,97631.38
2023-02-22T17:28:17.254Z,97630.91
2023-02-22T17:30:45.319Z,97635.97
2023-02-22T17:33:16.331Z,97643.84
2023-02-22T17:35:43.949Z,97659.31
2023-02-22T17:38:10.517Z,97649.22
2023-02-22T17:40:38.936Z,97658.09
2023-02-22T17:43:08.773Z,97661.13
2023-02-22T17:45:38.095Z,97642.28
2023-02-22T17:48:05.533Z,97661.88
2023-02-22T17:50:32.109Z,97631.84
2023-02-22T17:53:03.234Z,97664.41
2023-02-22T17:55:30.144Z,97662.59
2023-02-22T17:57:59.341Z,97640.91
2023-02-22T18:00:34.191Z,97668.91
2023-02-22T18:03:10.854Z,97661.66
2023-02-22T18:05:47.052Z,97666.06
2023-02-22T18:08:15.826Z,97673.56
2023-02-22T18:10:43.699Z,97667.41
2023-02-22T18:13:14.134Z,97673.19
2023-02-22T18:15:40.707Z,97652.16
2023-02-22T18:18:07.461Z,97666.34
2023-02-22T18:20:39.879Z,97668.88
2023-02-22T18:23:08.433Z,97662.75
2023-02-22T18:25:36.543Z,97666.59
2023-02-22T18:28:07.842Z,97662.47
2023-02-22T18:30:36.749Z,97665.78
2023-02-22T18:33:04.241Z,97668.13
2023-02-22T18:35:31.584Z,97665.28
2023-02-22T18:38:01.390Z,97669.69
2023-02-22T18:40:30.774Z,97661.06
2023-02-22T18:43:00.550Z,97658.88
2023-02-22T18:45:30.728Z,97663.72
2023-02-22T18:48:00.889Z,97648.28
2023-02-22T18:50:30.546Z,97659.72
2023-02-22T18:52:59.921Z,97649.47
2023-02-22T18:55:27.686Z,97646.75
2023-02-22T18:57:57.730Z,97659.63
2023-02-22T19:00:29.961Z,97657.41
2023-02-22T19:02:58.635Z,97656.06
2023-02-22T19:05:25.143Z,97664.13
2023-02-22T19:07:51.686Z,97659.53
2023-02-22T19:10:18.281Z,97664.66
2023-02-22T19:12:44.838Z,97642.44
2023-02-22T19:15:12.148Z,97643.72
2023-02-22T19:17:40.617Z,97656.16
2023-02-22T19:20:10.770Z,97649.41
2023-02-22T19:25:05.707Z,97653.13
2023-02-22T19:27:52.528Z,97659.63
2023-02-22T19:30:19.098Z,97661.91
2023-02-22T19:32:47.442Z,97670.56
2023-02-22T19:35:28.616Z,97656.56
2023-02-22T19:37:56.107Z,97660.34
2023-02-22T19:40:23.290Z,97662.06
2023-02-22T19:42:51.592Z,97658.88
2023-02-22T19:45:22.360Z,97667.94
2023-02-22T19:47:54.052Z,97666.47
2023-02-22T19:50:21.679Z,97624.69
2023-02-22T19:53:04.667Z,97659.19
2023-02-22T19:55:32.350Z,97664.13
2023-02-22T19:58:03.329Z,97660.34
2023-02-22T20:00:35.780Z,97667.31
2023-02-22T20:03:06.433Z,97678.84
2023-02-22T20:05:37.313Z,97666.47
2023-02-22T20:08:04.182Z,97663.84
2023-02-22T20:10:34.999Z,97667.56
2023-02-22T20:13:02.176Z,97671.31
2023-02-22T20:15:33.260Z,97673.69
2023-02-22T20:18:02.724Z,97639.53
2023-02-22T20:20:33.495Z,97663.19
2023-02-22T20:23:01.511Z,97658.59
2023-02-22T20:25:28.044Z,97663.03
2023-02-22T20:27:56.525Z,97668.19
2023-02-22T20:30:25.070Z,97661.59
2023-02-22T20:32:51.779Z,97678.31
2023-02-22T20:35:18.435Z,97657.19
2023-02-22T20:37:44.973Z,97662.38
2023-02-22T20:40:11.592Z,97665.03
2023-02-22T20:42:40.526Z,97673.81
2023-02-22T20:45:08.851Z,97658.00
2023-02-22T20:47:36.424Z,97676.50
2023-02-22T20:50:03.362Z,97675.44
2023-02-22T20:52:33.366Z,97679.19
2023-02-22T20:55:04.246Z,97663.44
2023-02-22T20:57:33.836Z,97685.09
2023-02-22T21:00:04.840Z,97675.03
2023-02-22T21:02:36.829Z,97678.03
2023-02-22T21:05:03.469Z,97663.19
2023-02-22T21:07:33.705Z,97696.03
2023-02-22T21:10:06.063Z,97684.00
2023-02-22T21:12:34.887Z,97685.34
2023-02-22T21:15:01.948Z,97678.03
2023-02-22T21:17:31.534Z,97691.47
2023-02-22T21:20:01.179Z,97686.38
2023-02-22T21:22:27.690Z,97689.50
2023-02-22T21:24:54.227Z,97687.75
2023-02-22T21:27:20.735Z,97684.03
2023-02-22T21:29:47.305Z,97689.88
2023-02-22T21:32:14.120Z,97694.28
2023-02-22T21:34:40.938Z,97700.59
2023-02-22T21:37:08.365Z,97693.78
2023-02-22T21:39:35.467Z,97678.94
2023-02-22T21:42:07.169Z,97672.00
2023-02-22T21:44:33.726Z,97684.25
2023-02-22T21:47:02.090Z,97680.63
2023-02-22T21:49:29.048Z,97669.91
2023-02-22T21:51:57.591Z,97688.84
2023-02-22T21:54:24.230Z,97680.28
2023-02-22T21:56:50.834Z,97681.94
2023-02-22T21:59:20.266Z,97688.69
2023-02-22T22:01:55.457Z,97688.94
2023-02-22T22:04:29.839Z,97685.72
2023-02-22T22:06:59.351Z,97689.75
2023-02-22T22:09:29.049Z,97686.56
2023-02-22T22:11:58.392Z,97679.69
2023-02-22T22:14:26.121Z,97674.38
2023-02-22T22:17:00.232Z,97675.22
2023-02-22T22:19:29.319Z,97681.22
2023-02-22T22:21:56.838Z,97685.09
2023-02-22T22:24:24.183Z,97675.09
2023-02-22T22:26:54.811Z,97676.38
2023-02-22T22:29:28.548Z,97683.16
2023-02-22T22:31:55.527Z,97682.22
2023-02-22T22:34:25.190Z,97675.94
2023-02-22T22:36:51.677Z,97661.78
2023-02-22T22:39:20.936Z,97670.34
2023-02-22T22:41:48.345Z,97680.75
2023-02-22T22:44:16.139Z,97678.09
2023-02-22T22:46:43.581Z,97686.84
2023-02-22T22:49:13.289Z,97676.09
2023-02-22T22:51:41.125Z,97685.34
2023-02-22T22:54:12.090Z,97680.72
2023-02-22T22:56:38.725Z,97674.09
2023-02-22T22:59:09.709Z,97672.13
2023-02-22T23:01:40.612Z,97669.97
2023-02-22T23:04:11.739Z,97672.75
2023-02-22T23:06:41.071Z,97669.31
2023-02-22T23:09:11.620Z,97678.69
2023-02-22T23:11:44.593Z,97677.66
2023-02-22T23:14:14.077Z,97672.22
2023-02-22T23:16:42.407Z,97671.38
2023-02-22T23:19:09.314Z,97667.44
2023-02-22T23:21:39.175Z,97680.66
2023-02-22T23:24:09.145Z,97669.25
2023-02-22T23:26:38.501Z,97676.59
2023-02-22T23:29:07.740Z,97671.16
2023-02-22T23:31:39.597Z,97666.56
2023-02-22T23:34:11.216Z,97655.50
2023-02-22T23:36:44.602Z,97664.56
2023-02-22T23:39:12.297Z,97656.00
2023-02-22T23:41:38.788Z,97656.50
2023-02-22T23:44:08.445Z,97657.06
2023-02-22T23:46:39.279Z,97656.72
2023-02-22T23:49:09.037Z,97653.13
2023-02-22T23:51:39.681Z,97656.47
2023-02-22T23:54:12.560Z,97656.59
2023-02-22T23:56:47.291Z,97663.59
2023-02-22T23:59:14.448Z,97672.88
